createdAt,value
2023-12-29T00:00:21.000Z,1002.1
2023-12-29T00:00:31.596Z,1002.2
2023-12-29T00:01:33.000Z,1002.1
2023-12-29T00:02:45.000Z,1002
2023-12-29T00:03:58.000Z,1002.1
2023-12-29T00:05:10.000Z,1002.1
2023-12-29T00:07:34.000Z,1002.1
2023-12-29T00:07:44.706Z,1002.1
2023-12-29T00:08:46.000Z,1002.1
2023-12-29T00:09:59.000Z,1002.1
2023-12-29T00:11:11.000Z,1002.1
2023-12-29T00:12:23.000Z,1002.1
2023-12-29T00:13:35.000Z,1002.1
2023-12-29T00:14:46.000Z,1002.2
2023-12-29T00:15:59.000Z,1002.1
2023-12-29T00:17:11.000Z,1002.1
2023-12-29T00:18:23.000Z,1002.1
2023-12-29T00:19:35.000Z,1002.2
2023-12-29T00:20:47.000Z,1002.1
2023-12-29T00:21:59.000Z,1002.1
2023-12-29T00:23:12.000Z,1002.1
2023-12-29T00:24:24.000Z,1002
2023-12-29T00:25:36.000Z,1001.9
2023-12-29T00:26:48.000Z,1002.1
2023-12-29T00:28:00.000Z,1002.1
2023-12-29T00:29:13.000Z,1002
2023-12-29T00:30:24.000Z,1002
2023-12-29T00:31:36.000Z,1002
2023-12-29T00:32:48.000Z,1002
2023-12-29T00:34:00.000Z,1002.1
2023-12-29T00:35:13.000Z,1002
2023-12-29T00:36:25.000Z,1002
2023-12-29T00:37:37.000Z,1002
2023-12-29T00:38:49.000Z,1002
2023-12-29T00:40:01.000Z,1002
2023-12-29T00:41:13.000Z,1002
2023-12-29T00:42:26.000Z,1002
2023-12-29T00:43:38.000Z,1001.9
2023-12-29T00:44:50.000Z,1002
2023-12-29T00:46:02.000Z,1002.1
2023-12-29T00:47:13.000Z,1002
2023-12-29T00:48:26.000Z,1002
2023-12-29T00:49:38.000Z,1002.1
2023-12-29T00:50:50.000Z,1001.9
2023-12-29T00:52:02.000Z,1002
2023-12-29T00:53:14.000Z,1001.9
2023-12-29T00:54:26.000Z,1002
2023-12-29T00:56:51.000Z,1001.9
2023-12-29T00:57:01.367Z,1002
2023-12-29T00:58:03.000Z,1001.9
2023-12-29T00:59:15.000Z,1001.9
2023-12-29T01:00:27.000Z,1001.8
2023-12-29T01:01:39.000Z,1001.9
2023-12-29T01:02:51.000Z,1001.8
2023-12-29T01:04:03.000Z,1001.7
2023-12-29T01:05:15.000Z,1001.7
2023-12-29T01:06:27.000Z,1001.7
2023-12-29T01:07:40.000Z,1001.6
2023-12-29T01:08:52.000Z,1001.7
2023-12-29T01:10:04.000Z,1001.6
2023-12-29T01:11:16.000Z,1001.6
2023-12-29T01:12:28.000Z,1001.6
2023-12-29T01:13:40.000Z,1001.6
2023-12-29T01:14:53.000Z,1001.6
2023-12-29T01:16:05.000Z,1001.7
2023-12-29T01:17:16.000Z,1001.8
2023-12-29T01:18:28.000Z,1001.7
2023-12-29T01:19:40.000Z,1001.6
2023-12-29T01:20:53.000Z,1001.7
2023-12-29T01:22:05.000Z,1001.6
2023-12-29T01:23:17.000Z,1001.6
2023-12-29T01:24:29.000Z,1001.6
2023-12-29T01:25:41.000Z,1001.5
2023-12-29T01:26:54.000Z,1001.5
2023-12-29T01:28:06.000Z,1001.5
2023-12-29T01:29:18.000Z,1001.6
2023-12-29T01:30:30.000Z,1001.6
2023-12-29T01:31:42.000Z,1001.5
2023-12-29T01:32:53.000Z,1001.6
2023-12-29T01:34:06.000Z,1001.5
2023-12-29T01:35:18.000Z,1001.5
2023-12-29T01:36:30.000Z,1001.6
2023-12-29T01:37:42.000Z,1001.5
2023-12-29T01:38:54.000Z,1001.5
2023-12-29T01:40:07.000Z,1001.5
2023-12-29T01:41:19.000Z,1001.4
2023-12-29T01:42:31.000Z,1001.3
2023-12-29T01:43:43.000Z,1001.3
2023-12-29T01:44:55.000Z,1001.2
2023-12-29T01:46:07.000Z,1001.3
2023-12-29T01:47:20.000Z,1001.2
2023-12-29T01:48:31.000Z,1001.2
2023-12-29T01:49:43.000Z,1001.2
2023-12-29T01:50:55.000Z,1001.3
2023-12-29T01:52:07.000Z,1001.3
2023-12-29T01:53:20.000Z,1001.3
2023-12-29T01:54:32.000Z,1001.3
2023-12-29T01:55:44.000Z,1001.2
2023-12-29T01:56:56.000Z,1001.2
2023-12-29T01:58:08.000Z,1001.2
2023-12-29T01:59:21.000Z,1001.1
2023-12-29T02:00:33.000Z,1001.2
2023-12-29T02:01:45.000Z,1001.1
2023-12-29T02:02:57.000Z,1001
2023-12-29T02:04:08.000Z,1000.9
2023-12-29T02:05:20.000Z,1001
2023-12-29T02:06:33.000Z,1001
2023-12-29T02:07:45.000Z,1001
2023-12-29T02:08:57.000Z,1001
2023-12-29T02:10:09.000Z,1001
2023-12-29T02:11:21.000Z,1001.1
2023-12-29T02:12:34.000Z,1001.1
2023-12-29T02:13:46.000Z,1001.1
2023-12-29T02:14:58.000Z,1001.2
2023-12-29T02:16:10.000Z,1001.1
2023-12-29T02:17:22.000Z,1001.1
2023-12-29T02:18:35.000Z,1001
2023-12-29T02:19:46.000Z,1001.1
2023-12-29T02:20:58.000Z,1001.1
2023-12-29T02:22:10.000Z,1001
2023-12-29T02:23:22.000Z,1001.1
2023-12-29T02:24:34.000Z,1001
2023-12-29T02:25:47.000Z,1001
2023-12-29T02:26:59.000Z,1001
2023-12-29T02:28:11.000Z,1001
2023-12-29T02:29:23.000Z,1001
2023-12-29T02:30:35.000Z,1001
2023-12-29T02:31:48.000Z,1001
2023-12-29T02:33:00.000Z,1001
2023-12-29T02:34:12.000Z,1001
2023-12-29T02:35:24.000Z,1001
2023-12-29T02:36:35.000Z,1001
2023-12-29T02:37:47.000Z,1001
2023-12-29T02:39:00.000Z,1001
2023-12-29T02:40:12.000Z,1001
2023-12-29T02:41:24.000Z,1001
2023-12-29T02:42:36.000Z,1001
2023-12-29T02:43:48.000Z,1001
2023-12-29T02:45:01.000Z,1000.9
2023-12-29T02:46:13.000Z,1001
2023-12-29T02:47:25.000Z,1001
2023-12-29T02:48:37.000Z,1001
2023-12-29T02:49:49.000Z,1000.9
2023-12-29T02:51:02.000Z,1000.9
2023-12-29T02:52:13.000Z,1000.9
2023-12-29T02:53:25.000Z,1000.9
2023-12-29T02:54:37.000Z,1000.9
2023-12-29T02:55:49.000Z,1000.9
2023-12-29T02:57:01.000Z,1000.9
2023-12-29T02:58:14.000Z,1000.8
2023-12-29T02:59:26.000Z,1000.8
2023-12-29T03:00:38.000Z,1000.8
2023-12-29T03:01:50.000Z,1000.7
2023-12-29T03:03:02.000Z,1000.7
2023-12-29T03:04:15.000Z,1000.7
2023-12-29T03:05:27.000Z,1000.7
2023-12-29T03:06:39.000Z,1000.7
2023-12-29T03:07:50.000Z,1000.7
2023-12-29T03:09:02.000Z,1000.7
2023-12-29T03:10:15.000Z,1000.7
2023-12-29T03:11:27.000Z,1000.6
2023-12-29T03:12:39.000Z,1000.6
2023-12-29T03:13:51.000Z,1000.6
2023-12-29T03:15:03.000Z,1000.6
2023-12-29T03:16:15.000Z,1000.6
2023-12-29T03:17:28.000Z,1000.5
2023-12-29T03:18:40.000Z,1000.6
2023-12-29T03:19:52.000Z,1000.5
2023-12-29T03:21:04.000Z,1000.5
2023-12-29T03:22:16.000Z,1000.4
2023-12-29T03:23:28.000Z,1000.3
2023-12-29T03:24:40.000Z,1000.3
2023-12-29T03:25:52.000Z,1000.4
2023-12-29T03:27:04.000Z,1000.4
2023-12-29T03:28:16.000Z,1000.3
2023-12-29T03:29:28.000Z,1000.4
2023-12-29T03:30:41.000Z,1000.4
2023-12-29T03:31:53.000Z,1000.5
2023-12-29T03:33:05.000Z,1000.4
2023-12-29T03:34:17.000Z,1000.5
2023-12-29T03:35:29.000Z,1000.4
2023-12-29T03:36:42.000Z,1000.5
2023-12-29T03:37:54.000Z,1000.4
2023-12-29T03:39:05.000Z,1000.4
2023-12-29T03:40:17.000Z,1000.4
2023-12-29T03:41:29.000Z,1000.3
2023-12-29T03:42:42.000Z,1000.3
2023-12-29T03:43:54.000Z,1000.3
2023-12-29T03:45:06.000Z,1000.2
2023-12-29T03:46:18.000Z,1000.3
2023-12-29T03:47:30.000Z,1000.2
2023-12-29T03:48:42.000Z,1000.3
2023-12-29T03:49:55.000Z,1000.2
2023-12-29T03:51:07.000Z,1000.2
2023-12-29T03:52:19.000Z,1000.2
2023-12-29T03:53:31.000Z,1000.3
2023-12-29T03:54:42.000Z,1000.3
2023-12-29T03:55:55.000Z,1000.2
2023-12-29T03:57:07.000Z,1000.4
2023-12-29T03:58:19.000Z,1000.3
2023-12-29T03:59:31.000Z,1000.3
2023-12-29T04:00:43.000Z,1000.3
2023-12-29T04:01:56.000Z,1000.3
2023-12-29T04:03:08.000Z,1000.3
2023-12-29T04:04:20.000Z,1000.3
2023-12-29T04:05:32.000Z,1000.3
2023-12-29T04:06:44.000Z,1000.3
2023-12-29T04:07:56.000Z,1000.3
2023-12-29T04:09:09.000Z,1000.2
2023-12-29T04:10:20.000Z,1000.3
2023-12-29T04:11:32.000Z,1000.3
2023-12-29T04:12:44.000Z,1000.4
2023-12-29T04:13:56.000Z,1000.3
2023-12-29T04:15:09.000Z,1000.3
2023-12-29T04:16:21.000Z,1000.2
2023-12-29T04:17:33.000Z,1000.2
2023-12-29T04:18:45.000Z,1000.2
2023-12-29T04:19:57.000Z,1000.2
2023-12-29T04:21:10.000Z,1000.2
2023-12-29T04:22:22.000Z,1000.3
2023-12-29T04:23:34.000Z,1000.2
2023-12-29T04:24:46.000Z,1000.3
2023-12-29T04:25:57.000Z,1000.2
2023-12-29T04:27:09.000Z,1000.2
2023-12-29T04:28:22.000Z,1000.2
2023-12-29T04:29:34.000Z,1000.3
2023-12-29T04:30:46.000Z,1000.3
2023-12-29T04:31:58.000Z,1000.2
2023-12-29T04:33:10.000Z,1000.2
2023-12-29T04:34:23.000Z,1000.3
2023-12-29T04:35:35.000Z,1000.2
2023-12-29T04:36:47.000Z,1000.2
2023-12-29T04:37:59.000Z,1000.2
2023-12-29T04:39:11.000Z,1000.2
2023-12-29T04:40:23.000Z,1000.3
2023-12-29T04:41:35.000Z,1000.3
2023-12-29T04:42:47.000Z,1000.2
2023-12-29T04:43:59.000Z,1000.2
2023-12-29T04:45:11.000Z,1000.2
2023-12-29T04:46:23.000Z,1000.2
2023-12-29T04:47:36.000Z,1000.2
2023-12-29T04:48:48.000Z,1000.2
2023-12-29T04:50:00.000Z,1000.2
2023-12-29T04:51:12.000Z,1000.2
2023-12-29T04:52:24.000Z,1000.3
2023-12-29T04:53:37.000Z,1000.3
2023-12-29T04:54:49.000Z,1000.3
2023-12-29T04:56:01.000Z,1000.3
2023-12-29T04:57:12.000Z,1000.3
2023-12-29T04:58:24.000Z,1000.3
2023-12-29T04:59:36.000Z,1000.4
2023-12-29T05:00:49.000Z,1000.5
2023-12-29T05:02:01.000Z,1000.4
2023-12-29T05:03:12.000Z,1000.3
2023-12-29T05:04:24.000Z,1000.4
2023-12-29T05:05:36.000Z,1000.4
2023-12-29T05:06:49.000Z,1000.4
2023-12-29T05:08:01.000Z,1000.3
2023-12-29T05:09:13.000Z,1000.3
2023-12-29T05:10:25.000Z,1000.3
2023-12-29T05:11:37.000Z,1000.3
2023-12-29T05:12:50.000Z,1000.2
2023-12-29T05:14:02.000Z,1000.1
2023-12-29T05:15:14.000Z,1000.3
2023-12-29T05:16:26.000Z,1000.2
2023-12-29T05:17:38.000Z,1000.2
2023-12-29T05:18:49.000Z,1000.2
2023-12-29T05:20:02.000Z,1000.2
2023-12-29T05:21:14.000Z,1000.3
2023-12-29T05:22:26.000Z,1000.3
2023-12-29T05:23:38.000Z,1000.3
2023-12-29T05:24:50.000Z,1000.3
2023-12-29T05:26:03.000Z,1000.3
2023-12-29T05:27:15.000Z,1000.3
2023-12-29T05:28:27.000Z,1000.3
2023-12-29T05:29:39.000Z,1000.3
2023-12-29T05:30:51.000Z,1000.4
2023-12-29T05:32:03.000Z,1000.3
2023-12-29T05:33:16.000Z,1000.3
2023-12-29T05:34:27.000Z,1000.3
2023-12-29T05:35:39.000Z,1000.4
2023-12-29T05:36:51.000Z,1000.4
2023-12-29T05:38:03.000Z,1000.4
2023-12-29T05:39:16.000Z,1000.3
2023-12-29T05:40:28.000Z,1000.4
2023-12-29T05:41:40.000Z,1000.4
2023-12-29T05:42:52.000Z,1000.3
2023-12-29T05:44:04.000Z,1000.3
2023-12-29T05:45:17.000Z,1000.3
2023-12-29T05:46:29.000Z,1000.3
2023-12-29T05:47:41.000Z,1000.2
2023-12-29T05:48:53.000Z,1000.2
2023-12-29T05:50:04.000Z,1000.2
2023-12-29T05:51:16.000Z,1000.1
2023-12-29T05:52:29.000Z,1000.1
2023-12-29T05:53:41.000Z,1000.1
2023-12-29T05:54:53.000Z,1000.2
2023-12-29T05:56:05.000Z,1000.1
2023-12-29T05:57:17.000Z,1000.1
2023-12-29T05:58:30.000Z,1000.1
2023-12-29T05:59:42.000Z,1000.1
2023-12-29T06:00:54.000Z,1000.1
2023-12-29T06:02:06.000Z,1000.1
2023-12-29T06:03:18.000Z,1000
2023-12-29T06:04:31.000Z,1000.1
2023-12-29T06:05:42.000Z,1000.1
2023-12-29T06:06:54.000Z,1000
2023-12-29T06:08:06.000Z,1000.1
2023-12-29T06:09:18.000Z,1000
2023-12-29T06:10:30.000Z,1000.1
2023-12-29T06:11:43.000Z,1000
2023-12-29T06:12:55.000Z,1000.1
2023-12-29T06:14:07.000Z,1000.1
2023-12-29T06:15:19.000Z,1000.1
2023-12-29T06:16:31.000Z,1000
2023-12-29T06:17:44.000Z,1000
2023-12-29T06:18:56.000Z,1000
2023-12-29T06:20:08.000Z,999.9
2023-12-29T06:21:19.000Z,1000
2023-12-29T06:22:31.000Z,999.9
2023-12-29T06:23:44.000Z,999.9
2023-12-29T06:24:56.000Z,999.9
2023-12-29T06:26:08.000Z,999.9
2023-12-29T06:27:20.000Z,1000
2023-12-29T06:28:32.000Z,999.9
2023-12-29T06:29:44.000Z,999.9
2023-12-29T06:30:57.000Z,1000
2023-12-29T06:32:09.000Z,1000
2023-12-29T06:33:21.000Z,1000
2023-12-29T06:34:33.000Z,1000.1
2023-12-29T06:35:45.000Z,1000
2023-12-29T06:36:57.000Z,1000.1
2023-12-29T06:38:09.000Z,1000
2023-12-29T06:39:21.000Z,1000
2023-12-29T06:40:33.000Z,1000
2023-12-29T06:41:45.000Z,1000
2023-12-29T06:42:57.000Z,1000
2023-12-29T06:44:10.000Z,999.9
2023-12-29T06:45:22.000Z,999.9
2023-12-29T06:46:34.000Z,999.9
2023-12-29T06:47:46.000Z,999.8
2023-12-29T06:48:58.000Z,999.9
2023-12-29T06:50:11.000Z,999.8
2023-12-29T06:51:23.000Z,999.9
2023-12-29T06:52:34.000Z,999.9
2023-12-29T06:53:46.000Z,1000
2023-12-29T06:54:58.000Z,1000
2023-12-29T06:56:11.000Z,999.9
2023-12-29T06:57:23.000Z,1000
2023-12-29T06:58:35.000Z,999.9
2023-12-29T06:59:47.000Z,1000.1
2023-12-29T07:00:59.000Z,1000
2023-12-29T07:02:11.000Z,999.9
2023-12-29T07:03:24.000Z,1000
2023-12-29T07:04:36.000Z,999.9
2023-12-29T07:05:48.000Z,1000
2023-12-29T07:07:00.000Z,999.9
2023-12-29T07:08:11.000Z,999.9
2023-12-29T07:09:24.000Z,999.9
2023-12-29T07:10:36.000Z,1000
2023-12-29T07:11:48.000Z,999.9
2023-12-29T07:13:00.000Z,999.8
2023-12-29T07:14:12.000Z,999.9
2023-12-29T07:15:25.000Z,999.8
2023-12-29T07:16:37.000Z,999.9
2023-12-29T07:17:49.000Z,999.8
2023-12-29T07:19:01.000Z,999.9
2023-12-29T07:20:13.000Z,999.9
2023-12-29T07:21:25.000Z,999.7
2023-12-29T07:22:38.000Z,999.7
2023-12-29T07:23:50.000Z,999.7
2023-12-29T07:25:01.000Z,999.7
2023-12-29T07:26:13.000Z,999.8
2023-12-29T07:28:38.000Z,999.7
2023-12-29T07:28:48.351Z,999.7
2023-12-29T07:29:50.000Z,999.8
2023-12-29T07:31:02.000Z,999.8
2023-12-29T07:32:14.000Z,999.8
2023-12-29T07:33:26.000Z,999.9
2023-12-29T07:34:38.000Z,999.8
2023-12-29T07:35:51.000Z,999.8
2023-12-29T07:37:03.000Z,999.9
2023-12-29T07:38:15.000Z,999.9
2023-12-29T07:39:27.000Z,999.9
2023-12-29T07:40:38.000Z,999.9
2023-12-29T07:41:51.000Z,999.9
2023-12-29T07:43:03.000Z,999.9
2023-12-29T07:44:15.000Z,999.9
2023-12-29T07:45:27.000Z,999.9
2023-12-29T07:46:39.000Z,1000.1
2023-12-29T07:47:52.000Z,1000.1
2023-12-29T07:49:04.000Z,1000.1
2023-12-29T07:50:16.000Z,1000.1
2023-12-29T07:51:28.000Z,1000
2023-12-29T07:52:40.000Z,1000.1
2023-12-29T07:53:52.000Z,1000
2023-12-29T07:55:05.000Z,1000
2023-12-29T07:56:17.000Z,1000
2023-12-29T07:57:29.000Z,1000
2023-12-29T07:58:41.000Z,1000
2023-12-29T07:59:52.000Z,1000
2023-12-29T08:01:05.000Z,1000
2023-12-29T08:02:17.000Z,999.9
2023-12-29T08:03:29.000Z,1000
2023-12-29T08:04:41.000Z,1000
2023-12-29T08:05:53.000Z,1000
2023-12-29T08:07:06.000Z,1000
2023-12-29T08:08:18.000Z,999.9
2023-12-29T08:09:30.000Z,1000
2023-12-29T08:10:42.000Z,1000
2023-12-29T08:11:54.000Z,999.9
2023-12-29T08:13:06.000Z,999.9
2023-12-29T08:14:19.000Z,1000
2023-12-29T08:15:30.000Z,1000
2023-12-29T08:16:42.000Z,1000
2023-12-29T08:17:54.000Z,999.9
2023-12-29T08:19:06.000Z,999.9
2023-12-29T08:20:19.000Z,999.9
2023-12-29T08:21:31.000Z,1000
2023-12-29T08:22:43.000Z,1000
2023-12-29T08:23:55.000Z,1000
2023-12-29T08:25:07.000Z,1000
2023-12-29T08:26:19.000Z,1000.1
2023-12-29T08:27:32.000Z,1000.1
2023-12-29T08:28:44.000Z,1000.2
2023-12-29T08:29:56.000Z,1000.1
2023-12-29T08:31:07.000Z,1000.2
2023-12-29T08:32:19.000Z,1000.2
2023-12-29T08:33:32.000Z,1000.1
2023-12-29T08:34:44.000Z,1000.1
2023-12-29T08:35:56.000Z,1000.1
2023-12-29T08:37:08.000Z,1000.2
2023-12-29T08:38:20.000Z,1000.2
2023-12-29T08:39:33.000Z,1000.2
2023-12-29T08:40:45.000Z,1000.1
2023-12-29T08:41:57.000Z,1000
2023-12-29T08:43:09.000Z,1000.1
2023-12-29T08:44:21.000Z,1000.2
2023-12-29T08:45:33.000Z,1000.2
2023-12-29T08:46:45.000Z,1000.2
2023-12-29T08:47:57.000Z,1000.3
2023-12-29T08:49:09.000Z,1000.3
2023-12-29T08:50:21.000Z,1000.3
2023-12-29T08:51:33.000Z,1000.3
2023-12-29T08:52:46.000Z,1000.4
2023-12-29T08:53:58.000Z,1000.2
2023-12-29T08:56:22.000Z,1000.4
2023-12-29T08:56:33.021Z,1000.2
2023-12-29T08:57:34.000Z,1000.3
2023-12-29T08:58:47.000Z,1000.3
2023-12-29T08:59:59.000Z,1000.3
2023-12-29T09:01:11.000Z,1000.4
2023-12-29T09:02:22.000Z,1000.4
2023-12-29T09:03:34.000Z,1000.4
2023-12-29T09:04:46.000Z,1000.4
2023-12-29T09:05:58.000Z,1000.3
2023-12-29T09:07:10.000Z,1000.3
2023-12-29T09:08:22.000Z,1000.2
2023-12-29T09:09:34.000Z,1000.2
2023-12-29T09:10:46.000Z,1000.1
2023-12-29T09:11:59.000Z,1000.2
2023-12-29T09:13:11.000Z,1000.2
2023-12-29T09:14:23.000Z,1000.2
2023-12-29T09:15:35.000Z,1000.2
2023-12-29T09:16:47.000Z,1000.3
2023-12-29T09:18:00.000Z,1000.3
2023-12-29T09:19:12.000Z,1000.3
2023-12-29T09:20:24.000Z,1000.4
2023-12-29T09:21:35.000Z,1000.4
2023-12-29T09:22:47.000Z,1000.4
2023-12-29T09:23:59.000Z,1000.5
2023-12-29T09:25:12.000Z,1000.5
2023-12-29T09:26:24.000Z,1000.5
2023-12-29T09:27:36.000Z,1000.4
2023-12-29T09:28:48.000Z,1000.4
2023-12-29T09:30:00.000Z,1000.5
2023-12-29T09:31:13.000Z,1000.5
2023-12-29T09:32:25.000Z,1000.5
2023-12-29T09:33:37.000Z,1000.4
2023-12-29T09:34:49.000Z,1000.6
2023-12-29T09:36:01.000Z,1000.7
2023-12-29T09:37:12.000Z,1000.6
2023-12-29T09:38:25.000Z,1000.6
2023-12-29T09:39:37.000Z,1000.6
2023-12-29T09:40:49.000Z,1000.7
2023-12-29T09:42:01.000Z,1000.7
2023-12-29T09:43:13.000Z,1000.6
2023-12-29T09:44:26.000Z,1000.8
2023-12-29T09:45:38.000Z,1000.6
2023-12-29T09:46:50.000Z,1000.6
2023-12-29T09:48:02.000Z,1000.6
2023-12-29T09:49:14.000Z,1000.6
2023-12-29T09:50:26.000Z,1000.6
2023-12-29T09:51:39.000Z,1000.5
2023-12-29T09:52:50.000Z,1000.5
2023-12-29T09:54:02.000Z,1000.5
2023-12-29T09:55:14.000Z,1000.5
2023-12-29T09:56:26.000Z,1000.5
2023-12-29T09:57:39.000Z,1000.5
2023-12-29T09:58:51.000Z,1000.5
2023-12-29T10:00:03.000Z,1000.5
2023-12-29T10:01:15.000Z,1000.6
2023-12-29T10:02:27.000Z,1000.6
2023-12-29T10:03:40.000Z,1000.7
2023-12-29T10:04:52.000Z,1000.6
2023-12-29T10:06:04.000Z,1000.6
2023-12-29T10:07:16.000Z,1000.6
2023-12-29T10:08:28.000Z,1000.6
2023-12-29T10:09:39.000Z,1000.6
2023-12-29T10:10:52.000Z,1000.6
2023-12-29T10:12:04.000Z,1000.6
2023-12-29T10:13:16.000Z,1000.7
2023-12-29T10:14:28.000Z,1000.7
2023-12-29T10:15:40.000Z,1000.6
2023-12-29T10:16:53.000Z,1000.5
2023-12-29T10:18:05.000Z,1000.7
2023-12-29T10:19:17.000Z,1000.6
2023-12-29T10:20:29.000Z,1000.7
2023-12-29T10:21:41.000Z,1000.7
2023-12-29T10:22:53.000Z,1000.8
2023-12-29T10:24:06.000Z,1000.7
2023-12-29T10:25:17.000Z,1000.7
2023-12-29T10:26:29.000Z,1000.8
2023-12-29T10:27:41.000Z,1000.6
2023-12-29T10:28:53.000Z,1000.6
2023-12-29T10:30:06.000Z,1000.6
2023-12-29T10:31:18.000Z,1000.5
2023-12-29T10:32:30.000Z,1000.6
2023-12-29T10:33:42.000Z,1000.6
2023-12-29T10:34:54.000Z,1000.6
2023-12-29T10:36:07.000Z,1000.6
2023-12-29T10:37:19.000Z,1000.6
2023-12-29T10:38:31.000Z,1000.5
2023-12-29T10:39:43.000Z,1000.6
2023-12-29T10:40:54.000Z,1000.6
2023-12-29T10:42:06.000Z,1000.5
2023-12-29T10:43:19.000Z,1000.5
2023-12-29T10:44:31.000Z,1000.5
2023-12-29T10:45:43.000Z,1000.5
2023-12-29T10:46:55.000Z,1000.5
2023-12-29T10:48:07.000Z,1000.5
2023-12-29T10:49:20.000Z,1000.5
2023-12-29T10:50:32.000Z,1000.4
2023-12-29T10:51:44.000Z,1000.5
2023-12-29T10:52:56.000Z,1000.5
2023-12-29T10:54:08.000Z,1000.5
2023-12-29T10:55:20.000Z,1000.4
2023-12-29T10:57:44.000Z,1000.4
2023-12-29T10:57:55.779Z,1000.5
2023-12-29T10:58:56.000Z,1000.4
2023-12-29T11:00:08.000Z,1000.4
2023-12-29T11:01:20.000Z,1000.4
2023-12-29T11:02:33.000Z,1000.4
2023-12-29T11:03:45.000Z,1000.4
2023-12-29T11:04:57.000Z,1000.3
2023-12-29T11:06:09.000Z,1000.4
2023-12-29T11:07:21.000Z,1000.4
2023-12-29T11:08:34.000Z,1000.3
2023-12-29T11:09:46.000Z,1000.4
2023-12-29T11:10:58.000Z,1000.4
2023-12-29T11:12:10.000Z,1000.4
2023-12-29T11:13:22.000Z,1000.4
2023-12-29T11:14:33.000Z,1000.4
2023-12-29T11:15:46.000Z,1000.4
2023-12-29T11:16:58.000Z,1000.4
2023-12-29T11:18:10.000Z,1000.4
2023-12-29T11:19:22.000Z,1000.5
2023-12-29T11:20:34.000Z,1000.4
2023-12-29T11:21:47.000Z,1000.4
2023-12-29T11:22:59.000Z,1000.4
2023-12-29T11:24:11.000Z,1000.3
2023-12-29T11:25:23.000Z,1000.3
2023-12-29T11:26:35.000Z,1000.3
2023-12-29T11:27:47.000Z,1000.3
2023-12-29T11:29:00.000Z,1000.2
2023-12-29T11:30:11.000Z,1000.2
2023-12-29T11:31:23.000Z,1000.1
2023-12-29T11:32:35.000Z,1000.1
2023-12-29T11:33:47.000Z,1000.2
2023-12-29T11:35:00.000Z,1000.2
2023-12-29T11:36:12.000Z,1000.2
2023-12-29T11:37:24.000Z,1000.2
2023-12-29T11:38:36.000Z,1000.1
2023-12-29T11:39:48.000Z,1000.1
2023-12-29T11:41:00.000Z,1000.1
2023-12-29T11:42:13.000Z,1000.2
2023-12-29T11:43:25.000Z,1000.1
2023-12-29T11:44:37.000Z,1000.1
2023-12-29T11:45:48.000Z,1000.1
2023-12-29T11:47:00.000Z,1000.1
2023-12-29T11:48:13.000Z,1000.1
2023-12-29T11:49:25.000Z,1000
2023-12-29T11:50:37.000Z,1000
2023-12-29T11:51:49.000Z,1000
2023-12-29T11:53:01.000Z,1000
2023-12-29T11:54:14.000Z,1000
2023-12-29T11:55:26.000Z,1000
2023-12-29T11:56:38.000Z,1000
2023-12-29T11:57:50.000Z,999.9
2023-12-29T11:59:02.000Z,999.9
2023-12-29T12:00:14.000Z,999.9
2023-12-29T12:01:26.000Z,1000
2023-12-29T12:02:38.000Z,999.9
2023-12-29T12:03:50.000Z,999.9
2023-12-29T12:05:02.000Z,999.9
2023-12-29T12:06:14.000Z,999.9
2023-12-29T12:07:27.000Z,999.9
2023-12-29T12:08:39.000Z,999.9
2023-12-29T12:09:51.000Z,999.9
2023-12-29T12:12:15.000Z,999.8
2023-12-29T12:12:26.307Z,999.8
2023-12-29T12:13:27.000Z,999.8
2023-12-29T12:14:40.000Z,999.8
2023-12-29T12:15:52.000Z,999.9
2023-12-29T12:17:03.000Z,999.8
2023-12-29T12:18:15.000Z,999.8
2023-12-29T12:19:27.000Z,999.8
2023-12-29T12:20:40.000Z,999.8
2023-12-29T12:21:52.000Z,999.7
2023-12-29T12:23:04.000Z,999.7
2023-12-29T12:24:16.000Z,999.7
2023-12-29T12:25:28.000Z,999.7
2023-12-29T12:27:53.000Z,999.7
2023-12-29T12:28:03.701Z,999.7
2023-12-29T12:30:17.000Z,999.6
2023-12-29T12:30:28.088Z,999.6
2023-12-29T12:31:29.000Z,999.7
2023-12-29T12:32:40.000Z,999.7
2023-12-29T12:33:53.000Z,999.7
2023-12-29T12:35:05.000Z,999.6
2023-12-29T12:36:17.000Z,999.5
2023-12-29T12:37:29.000Z,999.6
2023-12-29T12:38:41.000Z,999.6
2023-12-29T12:39:54.000Z,999.7
2023-12-29T12:41:06.000Z,999.6
2023-12-29T12:42:18.000Z,999.6
2023-12-29T12:43:30.000Z,999.6
2023-12-29T12:44:42.000Z,999.6
2023-12-29T12:45:54.000Z,999.6
2023-12-29T12:47:07.000Z,999.7
2023-12-29T12:48:19.000Z,999.7
2023-12-29T12:49:30.000Z,999.7
2023-12-29T12:50:42.000Z,999.6
2023-12-29T12:53:07.000Z,999.6
2023-12-29T12:53:17.604Z,999.7
2023-12-29T12:54:19.000Z,999.7
2023-12-29T12:55:31.000Z,999.6
2023-12-29T12:56:43.000Z,999.6
2023-12-29T12:57:55.000Z,999.7
2023-12-29T12:59:08.000Z,999.6
2023-12-29T13:00:20.000Z,999.6
2023-12-29T13:01:32.000Z,999.6
2023-12-29T13:02:44.000Z,999.6
2023-12-29T13:03:56.000Z,999.6
2023-12-29T13:06:21.000Z,999.6
2023-12-29T13:06:31.638Z,999.6
2023-12-29T13:07:32.000Z,999.6
2023-12-29T13:08:44.000Z,999.6
2023-12-29T13:09:56.000Z,999.5
2023-12-29T13:11:08.000Z,999.7
2023-12-29T13:12:21.000Z,999.6
2023-12-29T13:13:33.000Z,999.6
2023-12-29T13:15:57.000Z,999.5
2023-12-29T13:16:08.135Z,999.6
2023-12-29T13:17:09.000Z,999.6
2023-12-29T13:18:21.000Z,999.6
2023-12-29T13:19:34.000Z,999.6
2023-12-29T13:20:46.000Z,999.5
2023-12-29T13:21:58.000Z,999.6
2023-12-29T13:23:09.000Z,999.6
2023-12-29T13:24:21.000Z,999.5
2023-12-29T13:25:34.000Z,999.5
2023-12-29T13:26:46.000Z,999.5
2023-12-29T13:27:58.000Z,999.5
2023-12-29T13:29:10.000Z,999.4
2023-12-29T13:30:22.000Z,999.4
2023-12-29T13:31:34.000Z,999.4
2023-12-29T13:32:47.000Z,999.5
2023-12-29T13:33:59.000Z,999.6
2023-12-29T13:35:11.000Z,999.5
2023-12-29T13:36:23.000Z,999.5
2023-12-29T13:37:35.000Z,999.6
2023-12-29T13:38:47.000Z,999.6
2023-12-29T13:39:59.000Z,999.5
2023-12-29T13:41:11.000Z,999.4
2023-12-29T13:42:23.000Z,999.5
2023-12-29T13:43:35.000Z,999.4
2023-12-29T13:44:48.000Z,999.4
2023-12-29T13:46:00.000Z,999.4
2023-12-29T13:47:12.000Z,999.4
2023-12-29T13:48:24.000Z,999.2
2023-12-29T13:49:36.000Z,999.3
2023-12-29T13:50:48.000Z,999.3
2023-12-29T13:52:01.000Z,999.2
2023-12-29T13:53:13.000Z,999.2
2023-12-29T13:54:24.000Z,999.2
2023-12-29T13:55:36.000Z,999.2
2023-12-29T13:56:48.000Z,999.2
2023-12-29T13:58:01.000Z,999.2
2023-12-29T13:59:13.000Z,999.2
2023-12-29T14:00:25.000Z,999.2
2023-12-29T14:01:37.000Z,999.2
2023-12-29T14:02:49.000Z,999.2
2023-12-29T14:04:01.000Z,999.2
2023-12-29T14:05:14.000Z,999.1
2023-12-29T14:06:26.000Z,999.2
2023-12-29T14:07:38.000Z,999.1
2023-12-29T14:08:50.000Z,999.2
2023-12-29T14:10:01.000Z,999.1
2023-12-29T14:11:14.000Z,999.1
2023-12-29T14:12:26.000Z,999
2023-12-29T14:13:38.000Z,999
2023-12-29T14:14:50.000Z,999.1
2023-12-29T14:16:02.000Z,999.1
2023-12-29T14:17:15.000Z,999.2
2023-12-29T14:18:27.000Z,999.1
2023-12-29T14:19:39.000Z,999.1
2023-12-29T14:20:51.000Z,999
2023-12-29T14:22:03.000Z,999.1
2023-12-29T14:23:15.000Z,999.1
2023-12-29T14:24:28.000Z,999.1
2023-12-29T14:25:39.000Z,999.1
2023-12-29T14:26:51.000Z,999.2
2023-12-29T14:28:03.000Z,999.2
2023-12-29T14:29:15.000Z,999.2
2023-12-29T14:30:28.000Z,999.2
2023-12-29T14:31:40.000Z,999.3
2023-12-29T14:32:52.000Z,999.3
2023-12-29T14:34:04.000Z,999.3
2023-12-29T14:35:16.000Z,999.3
2023-12-29T14:36:28.000Z,999.2
2023-12-29T14:37:41.000Z,999.3
2023-12-29T14:38:53.000Z,999.3
2023-12-29T14:40:05.000Z,999.3
2023-12-29T14:41:16.000Z,999.4
2023-12-29T14:42:28.000Z,999.4
2023-12-29T14:43:41.000Z,999.3
2023-12-29T14:44:53.000Z,999.4
2023-12-29T14:46:05.000Z,999.4
2023-12-29T14:47:17.000Z,999.3
2023-12-29T14:48:29.000Z,999.4
2023-12-29T14:50:54.000Z,999.4
2023-12-29T14:51:04.798Z,999.3
2023-12-29T14:52:06.000Z,999.3
2023-12-29T14:53:18.000Z,999.3
2023-12-29T14:54:30.000Z,999.3
2023-12-29T14:55:42.000Z,999.3
2023-12-29T14:56:54.000Z,999.2
2023-12-29T14:58:06.000Z,999.2
2023-12-29T14:59:18.000Z,999.2
2023-12-29T15:00:30.000Z,999.3
2023-12-29T15:01:42.000Z,999.2
2023-12-29T15:02:55.000Z,999.2
2023-12-29T15:04:07.000Z,999.2
2023-12-29T15:05:19.000Z,999.2
2023-12-29T15:06:31.000Z,999.2
2023-12-29T15:07:43.000Z,999.2
2023-12-29T15:08:55.000Z,999.2
2023-12-29T15:10:08.000Z,999.2
2023-12-29T15:11:20.000Z,999.2
2023-12-29T15:12:31.000Z,999.2
2023-12-29T15:13:43.000Z,999.2
2023-12-29T15:14:55.000Z,999.2